sensor_id;sensor_type;location;lat;lon;timestamp;P1;durP1;ratioP1;P2;durP2;ratioP2
11671;SDS011;5892;43.412;24.612;2023-06-14T00:00:51;5.53;;;5.03;;
11671;SDS011;5892;43.412;24.612;2023-06-14T00:03:21;6.13;;;5.20;;
11671;SDS011;5892;43.412;24.612;2023-06-14T00:05:49;7.60;;;4.83;;
11671;SDS011;5892;43.412;24.612;2023-06-14T00:08:18;6.70;;;4.87;;
11671;SDS011;5892;43.412;24.612;2023-06-14T00:10:47;5.40;;;4.90;;
11671;SDS011;5892;43.412;24.612;2023-06-14T00:13:15;5.10;;;4.60;;
11671;SDS011;5892;43.412;24.612;2023-06-14T00:15:43;7.37;;;4.70;;
11671;SDS011;5892;43.412;24.612;2023-06-14T00:18:12;5.60;;;5.07;;
11671;SDS011;5892;43.412;24.612;2023-06-14T00:20:40;5.53;;;4.70;;
11671;SDS011;5892;43.412;24.612;2023-06-14T00:23:06;4.87;;;4.43;;
11671;SDS011;5892;43.412;24.612;2023-06-14T00:25:33;5.60;;;5.10;;
11671;SDS011;5892;43.412;24.612;2023-06-14T00:28:00;5.40;;;4.90;;
11671;SDS011;5892;43.412;24.612;2023-06-14T00:30:27;5.30;;;4.87;;
11671;SDS011;5892;43.412;24.612;2023-06-14T00:32:57;5.23;;;4.83;;
11671;SDS011;5892;43.412;24.612;2023-06-14T00:35:24;5.20;;;4.70;;
11671;SDS011;5892;43.412;24.612;2023-06-14T00:37:51;5.17;;;4.57;;
11671;SDS011;5892;43.412;24.612;2023-06-14T00:40:19;5.57;;;4.53;;
11671;SDS011;5892;43.412;24.612;2023-06-14T00:42:46;6.10;;;4.40;;
11671;SDS011;5892;43.412;24.612;2023-06-14T00:45:13;6.03;;;4.37;;
11671;SDS011;5892;43.412;24.612;2023-06-14T00:47:41;5.10;;;4.60;;
11671;SDS011;5892;43.412;24.612;2023-06-14T00:50:10;5.07;;;4.40;;
11671;SDS011;5892;43.412;24.612;2023-06-14T00:52:38;4.43;;;4.03;;
11671;SDS011;5892;43.412;24.612;2023-06-14T00:55:06;5.27;;;4.60;;
11671;SDS011;5892;43.412;24.612;2023-06-14T00:57:34;5.00;;;4.10;;
11671;SDS011;5892;43.412;24.612;2023-06-14T01:00:03;5.20;;;4.70;;
11671;SDS011;5892;43.412;24.612;2023-06-14T01:02:34;4.37;;;4.07;;
11671;SDS011;5892;43.412;24.612;2023-06-14T01:05:01;5.57;;;4.30;;
11671;SDS011;5892;43.412;24.612;2023-06-14T01:07:32;4.57;;;4.13;;
11671;SDS011;5892;43.412;24.612;2023-06-14T01:10:09;8.23;;;4.13;;
11671;SDS011;5892;43.412;24.612;2023-06-14T01:12:51;5.53;;;4.07;;
11671;SDS011;5892;43.412;24.612;2023-06-14T01:15:24;4.23;;;3.80;;
11671;SDS011;5892;43.412;24.612;2023-06-14T01:17:54;4.33;;;3.93;;
11671;SDS011;5892;43.412;24.612;2023-06-14T01:20:22;4.40;;;4.00;;
11671;SDS011;5892;43.412;24.612;2023-06-14T01:22:57;4.50;;;3.70;;
11671;SDS011;5892;43.412;24.612;2023-06-14T01:25:25;5.13;;;4.20;;
11671;SDS011;5892;43.412;24.612;2023-06-14T01:27:53;5.60;;;3.87;;
11671;SDS011;5892;43.412;24.612;2023-06-14T01:30:23;4.50;;;4.10;;
11671;SDS011;5892;43.412;24.612;2023-06-14T01:32:51;4.60;;;4.20;;
11671;SDS011;5892;43.412;24.612;2023-06-14T01:35:19;4.77;;;4.13;;
11671;SDS011;5892;43.412;24.612;2023-06-14T01:37:47;4.13;;;3.77;;
11671;SDS011;5892;43.412;24.612;2023-06-14T01:40:17;6.33;;;4.03;;
11671;SDS011;5892;43.412;24.612;2023-06-14T01:42:46;4.60;;;4.20;;
11671;SDS011;5892;43.412;24.612;2023-06-14T01:45:15;5.43;;;4.30;;
11671;SDS011;5892;43.412;24.612;2023-06-14T01:47:45;4.90;;;4.20;;
11671;SDS011;5892;43.412;24.612;2023-06-14T01:50:13;4.90;;;4.40;;
11671;SDS011;5892;43.412;24.612;2023-06-14T01:52:40;4.63;;;4.23;;
11671;SDS011;5892;43.412;24.612;2023-06-14T01:55:08;4.57;;;4.10;;
11671;SDS011;5892;43.412;24.612;2023-06-14T01:57:37;4.70;;;4.30;;
11671;SDS011;5892;43.412;24.612;2023-06-14T02:00:04;5.53;;;4.70;;
11671;SDS011;5892;43.412;24.612;2023-06-14T02:02:35;5.40;;;4.50;;
11671;SDS011;5892;43.412;24.612;2023-06-14T02:05:03;5.17;;;4.67;;
11671;SDS011;5892;43.412;24.612;2023-06-14T02:07:30;5.20;;;4.70;;
11671;SDS011;5892;43.412;24.612;2023-06-14T02:09:58;5.30;;;4.73;;
11671;SDS011;5892;43.412;24.612;2023-06-14T02:12:25;5.90;;;4.80;;
11671;SDS011;5892;43.412;24.612;2023-06-14T02:14:53;6.23;;;5.07;;
11671;SDS011;5892;43.412;24.612;2023-06-14T02:17:21;5.63;;;5.03;;
11671;SDS011;5892;43.412;24.612;2023-06-14T02:19:48;5.37;;;4.93;;
11671;SDS011;5892;43.412;24.612;2023-06-14T02:22:16;6.40;;;5.10;;
11671;SDS011;5892;43.412;24.612;2023-06-14T02:24:43;5.60;;;5.10;;
11671;SDS011;5892;43.412;24.612;2023-06-14T02:27:10;6.20;;;4.73;;
11671;SDS011;5892;43.412;24.612;2023-06-14T02:29:37;5.70;;;5.10;;
11671;SDS011;5892;43.412;24.612;2023-06-14T02:32:06;5.67;;;5.17;;
11671;SDS011;5892;43.412;24.612;2023-06-14T02:34:35;5.80;;;5.30;;
11671;SDS011;5892;43.412;24.612;2023-06-14T02:37:06;5.37;;;4.83;;
11671;SDS011;5892;43.412;24.612;2023-06-14T02:39:33;6.67;;;5.20;;
11671;SDS011;5892;43.412;24.612;2023-06-14T02:42:03;5.87;;;4.80;;
11671;SDS011;5892;43.412;24.612;2023-06-14T02:44:31;8.07;;;5.30;;
11671;SDS011;5892;43.412;24.612;2023-06-14T02:46:58;7.70;;;5.40;;
11671;SDS011;5892;43.412;24.612;2023-06-14T02:49:27;6.10;;;5.50;;
11671;SDS011;5892;43.412;24.612;2023-06-14T02:51:54;6.50;;;5.60;;
11671;SDS011;5892;43.412;24.612;2023-06-14T02:54:21;5.87;;;5.37;;
11671;SDS011;5892;43.412;24.612;2023-06-14T02:56:48;5.50;;;5.00;;
11671;SDS011;5892;43.412;24.612;2023-06-14T02:59:15;6.17;;;4.93;;
11671;SDS011;5892;43.412;24.612;2023-06-14T03:01:42;6.63;;;5.07;;
11671;SDS011;5892;43.412;24.612;2023-06-14T03:04:09;6.07;;;5.10;;
11671;SDS011;5892;43.412;24.612;2023-06-14T03:06:38;6.00;;;5.40;;
11671;SDS011;5892;43.412;24.612;2023-06-14T03:09:05;5.47;;;4.70;;
11671;SDS011;5892;43.412;24.612;2023-06-14T03:11:34;5.77;;;5.17;;
11671;SDS011;5892;43.412;24.612;2023-06-14T03:14:01;5.83;;;5.07;;
11671;SDS011;5892;43.412;24.612;2023-06-14T03:16:32;6.27;;;5.00;;
11671;SDS011;5892;43.412;24.612;2023-06-14T03:18:58;5.90;;;5.10;;
11671;SDS011;5892;43.412;24.612;2023-06-14T03:21:25;8.10;;;4.77;;
11671;SDS011;5892;43.412;24.612;2023-06-14T03:23:55;5.83;;;5.20;;
11671;SDS011;5892;43.412;24.612;2023-06-14T03:26:22;7.90;;;5.33;;
11671;SDS011;5892;43.412;24.612;2023-06-14T03:28:50;5.80;;;5.30;;
11671;SDS011;5892;43.412;24.612;2023-06-14T03:31:17;5.67;;;5.17;;
11671;SDS011;5892;43.412;24.612;2023-06-14T03:33:44;6.97;;;5.50;;
11671;SDS011;5892;43.412;24.612;2023-06-14T03:36:11;7.13;;;5.50;;
11671;SDS011;5892;43.412;24.612;2023-06-14T03:38:39;6.30;;;5.70;;
11671;SDS011;5892;43.412;24.612;2023-06-14T03:41:07;7.03;;;5.47;;
11671;SDS011;5892;43.412;24.612;2023-06-14T03:43:34;6.10;;;5.50;;
11671;SDS011;5892;43.412;24.612;2023-06-14T03:46:01;6.47;;;5.70;;
11671;SDS011;5892;43.412;24.612;2023-06-14T03:48:28;9.20;;;5.40;;
11671;SDS011;5892;43.412;24.612;2023-06-14T03:50:55;5.83;;;5.33;;
11671;SDS011;5892;43.412;24.612;2023-06-14T03:53:22;8.53;;;5.93;;
11671;SDS011;5892;43.412;24.612;2023-06-14T03:55:49;6.57;;;5.80;;
11671;SDS011;5892;43.412;24.612;2023-06-14T03:58:18;6.77;;;5.90;;
11671;SDS011;5892;43.412;24.612;2023-06-14T04:00:47;7.50;;;6.13;;
11671;SDS011;5892;43.412;24.612;2023-06-14T04:03:14;8.17;;;6.30;;
11671;SDS011;5892;43.412;24.612;2023-06-14T04:05:44;7.20;;;6.50;;
11671;SDS011;5892;43.412;24.612;2023-06-14T04:08:14;7.53;;;5.97;;
11671;SDS011;5892;43.412;24.612;2023-06-14T04:10:44;8.03;;;7.00;;
11671;SDS011;5892;43.412;24.612;2023-06-14T04:13:11;11.70;;;7.30;;
11671;SDS011;5892;43.412;24.612;2023-06-14T04:15:40;7.90;;;7.13;;
11671;SDS011;5892;43.412;24.612;2023-06-14T04:18:08;8.33;;;7.53;;
11671;SDS011;5892;43.412;24.612;2023-06-14T04:20:36;8.87;;;7.20;;
11671;SDS011;5892;43.412;24.612;2023-06-14T04:23:11;10.17;;;7.00;;
11671;SDS011;5892;43.412;24.612;2023-06-14T04:25:39;8.60;;;7.30;;
11671;SDS011;5892;43.412;24.612;2023-06-14T04:28:10;8.00;;;7.30;;
11671;SDS011;5892;43.412;24.612;2023-06-14T04:30:37;8.83;;;7.47;;
11671;SDS011;5892;43.412;24.612;2023-06-14T04:33:06;9.57;;;7.50;;
11671;SDS011;5892;43.412;24.612;2023-06-14T04:35:35;8.60;;;7.63;;
11671;SDS011;5892;43.412;24.612;2023-06-14T04:38:02;8.50;;;7.70;;
11671;SDS011;5892;43.412;24.612;2023-06-14T04:40:34;10.87;;;7.73;;
11671;SDS011;5892;43.412;24.612;2023-06-14T04:43:07;8.40;;;7.70;;
11671;SDS011;5892;43.412;24.612;2023-06-14T04:45:37;12.57;;;8.03;;
11671;SDS011;5892;43.412;24.612;2023-06-14T04:48:06;9.53;;;8.50;;
11671;SDS011;5892;43.412;24.612;2023-06-14T04:50:32;13.60;;;8.73;;
11671;SDS011;5892;43.412;24.612;2023-06-14T04:53:00;14.00;;;9.50;;
11671;SDS011;5892;43.412;24.612;2023-06-14T04:55:28;11.27;;;9.23;;
11671;SDS011;5892;43.412;24.612;2023-06-14T04:57:55;13.10;;;9.07;;
11671;SDS011;5892;43.412;24.612;2023-06-14T05:00:22;14.10;;;8.80;;
11671;SDS011;5892;43.412;24.612;2023-06-14T05:02:51;10.27;;;8.80;;
11671;SDS011;5892;43.412;24.612;2023-06-14T05:05:18;10.20;;;8.27;;
11671;SDS011;5892;43.412;24.612;2023-06-14T05:07:45;10.27;;;8.43;;
11671;SDS011;5892;43.412;24.612;2023-06-14T05:10:12;10.53;;;8.77;;
11671;SDS011;5892;43.412;24.612;2023-06-14T05:12:39;11.33;;;8.77;;
11671;SDS011;5892;43.412;24.612;2023-06-14T05:15:09;10.90;;;8.77;;
11671;SDS011;5892;43.412;24.612;2023-06-14T05:17:36;12.23;;;8.97;;
11671;SDS011;5892;43.412;24.612;2023-06-14T05:20:05;9.83;;;8.83;;
11671;SDS011;5892;43.412;24.612;2023-06-14T05:22:35;12.67;;;8.17;;
11671;SDS011;5892;43.412;24.612;2023-06-14T05:25:02;12.83;;;8.50;;
11671;SDS011;5892;43.412;24.612;2023-06-14T05:27:29;9.57;;;8.53;;
11671;SDS011;5892;43.412;24.612;2023-06-14T05:29:56;11.73;;;8.77;;
11671;SDS011;5892;43.412;24.612;2023-06-14T05:32:24;10.97;;;8.47;;
11671;SDS011;5892;43.412;24.612;2023-06-14T05:34:51;12.17;;;8.87;;
11671;SDS011;5892;43.412;24.612;2023-06-14T05:37:19;10.70;;;8.33;;
11671;SDS011;5892;43.412;24.612;2023-06-14T05:39:46;11.60;;;8.00;;
11671;SDS011;5892;43.412;24.612;2023-06-14T05:42:12;10.87;;;8.70;;
11671;SDS011;5892;43.412;24.612;2023-06-14T05:44:39;9.27;;;8.17;;
11671;SDS011;5892;43.412;24.612;2023-06-14T05:47:06;12.70;;;8.53;;
11671;SDS011;5892;43.412;24.612;2023-06-14T05:49:34;10.40;;;8.20;;
11671;SDS011;5892;43.412;24.612;2023-06-14T05:52:06;9.37;;;8.47;;
11671;SDS011;5892;43.412;24.612;2023-06-14T05:54:35;11.50;;;8.77;;
11671;SDS011;5892;43.412;24.612;2023-06-14T05:57:02;9.63;;;8.10;;
11671;SDS011;5892;43.412;24.612;2023-06-14T05:59:31;13.13;;;7.73;;
11671;SDS011;5892;43.412;24.612;2023-06-14T06:01:58;9.10;;;7.80;;
11671;SDS011;5892;43.412;24.612;2023-06-14T06:04:25;10.77;;;8.10;;
11671;SDS011;5892;43.412;24.612;2023-06-14T06:06:53;8.93;;;7.97;;
11671;SDS011;5892;43.412;24.612;2023-06-14T06:09:20;12.30;;;8.40;;
11671;SDS011;5892;43.412;24.612;2023-06-14T06:11:48;10.00;;;8.63;;
11671;SDS011;5892;43.412;24.612;2023-06-14T06:14:15;10.97;;;8.90;;
11671;SDS011;5892;43.412;24.612;2023-06-14T06:16:41;14.93;;;8.80;;
11671;SDS011;5892;43.412;24.612;2023-06-14T06:19:08;10.50;;;8.77;;
11671;SDS011;5892;43.412;24.612;2023-06-14T06:21:38;10.63;;;8.47;;
11671;SDS011;5892;43.412;24.612;2023-06-14T06:24:06;10.07;;;9.03;;
11671;SDS011;5892;43.412;24.612;2023-06-14T06:26:33;13.27;;;9.10;;
11671;SDS011;5892;43.412;24.612;2023-06-14T06:29:01;10.90;;;8.83;;
11671;SDS011;5892;43.412;24.612;2023-06-14T06:31:29;14.30;;;10.50;;
11671;SDS011;5892;43.412;24.612;2023-06-14T06:33:56;12.63;;;10.00;;
11671;SDS011;5892;43.412;24.612;2023-06-14T06:36:23;14.87;;;10.90;;
11671;SDS011;5892;43.412;24.612;2023-06-14T06:38:50;15.23;;;11.23;;
11671;SDS011;5892;43.412;24.612;2023-06-14T06:41:18;14.00;;;10.60;;
11671;SDS011;5892;43.412;24.612;2023-06-14T06:43:45;12.73;;;10.90;;
11671;SDS011;5892;43.412;24.612;2023-06-14T06:46:15;15.07;;;10.77;;
11671;SDS011;5892;43.412;24.612;2023-06-14T06:48:43;12.53;;;10.40;;
11671;SDS011;5892;43.412;24.612;2023-06-14T06:51:14;13.80;;;11.20;;
11671;SDS011;5892;43.412;24.612;2023-06-14T06:53:47;15.13;;;11.37;;
11671;SDS011;5892;43.412;24.612;2023-06-14T06:56:19;17.83;;;11.93;;
11671;SDS011;5892;43.412;24.612;2023-06-14T06:58:48;15.33;;;11.83;;
11671;SDS011;5892;43.412;24.612;2023-06-14T07:01:16;16.97;;;11.80;;
11671;SDS011;5892;43.412;24.612;2023-06-14T07:03:44;17.67;;;11.70;;
11671;SDS011;5892;43.412;24.612;2023-06-14T07:06:11;17.53;;;11.23;;
11671;SDS011;5892;43.412;24.612;2023-06-14T07:08:38;15.43;;;11.07;;
11671;SDS011;5892;43.412;24.612;2023-06-14T07:11:06;13.70;;;10.70;;
11671;SDS011;5892;43.412;24.612;2023-06-14T07:13:33;13.27;;;10.13;;
11671;SDS011;5892;43.412;24.612;2023-06-14T07:16:00;16.37;;;10.13;;
11671;SDS011;5892;43.412;24.612;2023-06-14T07:18:33;13.23;;;10.63;;
11671;SDS011;5892;43.412;24.612;2023-06-14T07:21:02;16.80;;;10.40;;
11671;SDS011;5892;43.412;24.612;2023-06-14T07:23:29;13.77;;;10.77;;
11671;SDS011;5892;43.412;24.612;2023-06-14T07:25:56;14.97;;;10.53;;
11671;SDS011;5892;43.412;24.612;2023-06-14T07:28:23;15.57;;;10.93;;
11671;SDS011;5892;43.412;24.612;2023-06-14T07:30:53;13.57;;;10.97;;
11671;SDS011;5892;43.412;24.612;2023-06-14T07:33:20;12.90;;;11.40;;
11671;SDS011;5892;43.412;24.612;2023-06-14T07:35:48;16.17;;;11.07;;
11671;SDS011;5892;43.412;24.612;2023-06-14T07:38:15;13.43;;;11.20;;
11671;SDS011;5892;43.412;24.612;2023-06-14T07:40:42;13.33;;;11.30;;
11671;SDS011;5892;43.412;24.612;2023-06-14T07:43:09;15.50;;;10.80;;
11671;SDS011;5892;43.412;24.612;2023-06-14T07:45:36;21.07;;;11.17;;
11671;SDS011;5892;43.412;24.612;2023-06-14T07:48:05;12.73;;;10.40;;
11671;SDS011;5892;43.412;24.612;2023-06-14T07:50:32;13.93;;;11.50;;
11671;SDS011;5892;43.412;24.612;2023-06-14T07:53:00;15.50;;;11.13;;
11671;SDS011;5892;43.412;24.612;2023-06-14T07:55:27;13.27;;;10.90;;
11671;SDS011;5892;43.412;24.612;2023-06-14T07:57:54;15.07;;;10.83;;
11671;SDS011;5892;43.412;24.612;2023-06-14T08:00:21;12.87;;;10.80;;
11671;SDS011;5892;43.412;24.612;2023-06-14T08:02:48;14.53;;;10.97;;
11671;SDS011;5892;43.412;24.612;2023-06-14T08:05:15;12.33;;;10.30;;
11671;SDS011;5892;43.412;24.612;2023-06-14T08:07:42;13.63;;;9.77;;
11671;SDS011;5892;43.412;24.612;2023-06-14T08:10:11;16.73;;;10.77;;
11671;SDS011;5892;43.412;24.612;2023-06-14T08:12:38;20.77;;;11.37;;
11671;SDS011;5892;43.412;24.612;2023-06-14T08:15:05;14.53;;;10.70;;
11671;SDS011;5892;43.412;24.612;2023-06-14T08:17:32;15.70;;;11.67;;
11671;SDS011;5892;43.412;24.612;2023-06-14T08:19:59;15.13;;;11.17;;
11671;SDS011;5892;43.412;24.612;2023-06-14T08:22:26;14.20;;;11.57;;
11671;SDS011;5892;43.412;24.612;2023-06-14T08:24:56;14.47;;;11.93;;
11671;SDS011;5892;43.412;24.612;2023-06-14T08:27:25;14.67;;;12.70;;
11671;SDS011;5892;43.412;24.612;2023-06-14T08:29:52;14.40;;;11.87;;
11671;SDS011;5892;43.412;24.612;2023-06-14T08:32:18;18.43;;;11.97;;
11671;SDS011;5892;43.412;24.612;2023-06-14T08:34:47;14.20;;;11.77;;
11671;SDS011;5892;43.412;24.612;2023-06-14T08:37:13;15.10;;;11.27;;
11671;SDS011;5892;43.412;24.612;2023-06-14T08:39:47;15.80;;;11.77;;
11671;SDS011;5892;43.412;24.612;2023-06-14T08:42:19;15.03;;;11.10;;
11671;SDS011;5892;43.412;24.612;2023-06-14T08:44:51;11.63;;;10.50;;
11671;SDS011;5892;43.412;24.612;2023-06-14T08:47:18;12.57;;;10.47;;
11671;SDS011;5892;43.412;24.612;2023-06-14T08:49:47;13.27;;;10.40;;
11671;SDS011;5892;43.412;24.612;2023-06-14T08:52:15;13.13;;;10.23;;
11671;SDS011;5892;43.412;24.612;2023-06-14T08:54:46;13.87;;;10.20;;
11671;SDS011;5892;43.412;24.612;2023-06-14T08:57:13;12.57;;;10.07;;
11671;SDS011;5892;43.412;24.612;2023-06-14T08:59:45;10.00;;;8.90;;
11671;SDS011;5892;43.412;24.612;2023-06-14T09:02:19;13.00;;;9.60;;
11671;SDS011;5892;43.412;24.612;2023-06-14T09:04:47;10.23;;;8.27;;
11671;SDS011;5892;43.412;24.612;2023-06-14T09:07:14;8.77;;;7.87;;
11671;SDS011;5892;43.412;24.612;2023-06-14T09:09:42;8.80;;;8.00;;
11671;SDS011;5892;43.412;24.612;2023-06-14T09:12:10;9.03;;;7.90;;
11671;SDS011;5892;43.412;24.612;2023-06-14T09:14:37;12.33;;;8.47;;
11671;SDS011;5892;43.412;24.612;2023-06-14T09:17:07;11.70;;;8.13;;
11671;SDS011;5892;43.412;24.612;2023-06-14T09:19:35;10.77;;;8.60;;
11671;SDS011;5892;43.412;24.612;2023-06-14T09:22:02;10.97;;;8.40;;
11671;SDS011;5892;43.412;24.612;2023-06-14T09:24:36;9.50;;;8.50;;
11671;SDS011;5892;43.412;24.612;2023-06-14T09:27:04;10.10;;;8.50;;
11671;SDS011;5892;43.412;24.612;2023-06-14T09:29:31;9.93;;;8.60;;
11671;SDS011;5892;43.412;24.612;2023-06-14T09:31:58;12.13;;;8.53;;
11671;SDS011;5892;43.412;24.612;2023-06-14T09:34:25;12.47;;;8.77;;
11671;SDS011;5892;43.412;24.612;2023-06-14T09:36:54;10.90;;;9.10;;
11671;SDS011;5892;43.412;24.612;2023-06-14T09:39:20;11.43;;;8.30;;
11671;SDS011;5892;43.412;24.612;2023-06-14T09:41:47;13.37;;;8.83;;
11671;SDS011;5892;43.412;24.612;2023-06-14T09:44:14;10.23;;;9.00;;
11671;SDS011;5892;43.412;24.612;2023-06-14T09:46:43;12.57;;;9.10;;
11671;SDS011;5892;43.412;24.612;2023-06-14T09:49:10;9.77;;;8.60;;
11671;SDS011;5892;43.412;24.612;2023-06-14T09:51:41;10.47;;;9.20;;
11671;SDS011;5892;43.412;24.612;2023-06-14T09:54:12;15.70;;;8.47;;
11671;SDS011;5892;43.412;24.612;2023-06-14T09:56:44;16.83;;;9.33;;
11671;SDS011;5892;43.412;24.612;2023-06-14T09:59:12;13.43;;;9.33;;
11671;SDS011;5892;43.412;24.612;2023-06-14T10:01:43;11.87;;;9.23;;
11671;SDS011;5892;43.412;24.612;2023-06-14T10:04:11;10.03;;;8.83;;
11671;SDS011;5892;43.412;24.612;2023-06-14T10:06:43;10.90;;;9.07;;
11671;SDS011;5892;43.412;24.612;2023-06-14T10:09:14;10.60;;;9.47;;
11671;SDS011;5892;43.412;24.612;2023-06-14T10:11:41;11.20;;;9.53;;
11671;SDS011;5892;43.412;24.612;2023-06-14T10:14:10;10.33;;;9.27;;
11671;SDS011;5892;43.412;24.612;2023-06-14T10:16:42;13.23;;;9.47;;
11671;SDS011;5892;43.412;24.612;2023-06-14T10:19:17;11.17;;;9.30;;
11671;SDS011;5892;43.412;24.612;2023-06-14T10:21:51;13.47;;;9.43;;
11671;SDS011;5892;43.412;24.612;2023-06-14T10:24:27;11.10;;;9.07;;
11671;SDS011;5892;43.412;24.612;2023-06-14T10:26:57;12.47;;;9.57;;
11671;SDS011;5892;43.412;24.612;2023-06-14T10:29:26;11.70;;;8.83;;
11671;SDS011;5892;43.412;24.612;2023-06-14T10:31:58;11.13;;;9.30;;
11671;SDS011;5892;43.412;24.612;2023-06-14T10:34:38;9.87;;;8.07;;
11671;SDS011;5892;43.412;24.612;2023-06-14T10:37:06;10.03;;;7.63;;
11671;SDS011;5892;43.412;24.612;2023-06-14T10:39:39;10.30;;;8.20;;
11671;SDS011;5892;43.412;24.612;2023-06-14T10:42:08;11.80;;;8.20;;
11671;SDS011;5892;43.412;24.612;2023-06-14T10:47:22;8.87;;;8.07;;
11671;SDS011;5892;43.412;24.612;2023-06-14T10:49:51;12.70;;;8.43;;
11671;SDS011;5892;43.412;24.612;2023-06-14T10:52:23;11.07;;;9.93;;
11671;SDS011;5892;43.412;24.612;2023-06-14T10:55:01;11.73;;;9.40;;
11671;SDS011;5892;43.412;24.612;2023-06-14T10:57:31;13.03;;;10.80;;
11671;SDS011;5892;43.412;24.612;2023-06-14T10:59:58;12.47;;;10.53;;
11671;SDS011;5892;43.412;24.612;2023-06-14T11:02:41;10.83;;;9.73;;
11671;SDS011;5892;43.412;24.612;2023-06-14T11:05:23;15.13;;;10.17;;
11671;SDS011;5892;43.412;24.612;2023-06-14T11:10:45;11.50;;;10.30;;
11671;SDS011;5892;43.412;24.612;2023-06-14T11:13:13;11.47;;;10.27;;
11671;SDS011;5892;43.412;24.612;2023-06-14T11:15:44;11.27;;;10.07;;
11671;SDS011;5892;43.412;24.612;2023-06-14T11:18:12;12.17;;;9.93;;
11671;SDS011;5892;43.412;24.612;2023-06-14T11:20:45;13.70;;;10.17;;
11671;SDS011;5892;43.412;24.612;2023-06-14T11:23:13;11.90;;;9.47;;
11671;SDS011;5892;43.412;24.612;2023-06-14T11:25:40;14.37;;;8.50;;
11671;SDS011;5892;43.412;24.612;2023-06-14T11:28:08;9.77;;;8.77;;
11671;SDS011;5892;43.412;24.612;2023-06-14T11:30:35;9.60;;;8.60;;
11671;SDS011;5892;43.412;24.612;2023-06-14T11:33:02;11.20;;;9.60;;
11671;SDS011;5892;43.412;24.612;2023-06-14T11:35:29;15.00;;;8.73;;
11671;SDS011;5892;43.412;24.612;2023-06-14T11:37:56;10.60;;;9.27;;
11671;SDS011;5892;43.412;24.612;2023-06-14T11:40:23;11.00;;;9.40;;
11671;SDS011;5892;43.412;24.612;2023-06-14T11:42:57;12.30;;;8.77;;
11671;SDS011;5892;43.412;24.612;2023-06-14T11:45:27;8.90;;;8.00;;
11671;SDS011;5892;43.412;24.612;2023-06-14T11:47:55;11.03;;;8.13;;
11671;SDS011;5892;43.412;24.612;2023-06-14T11:50:23;9.00;;;8.07;;
11671;SDS011;5892;43.412;24.612;2023-06-14T11:52:53;8.27;;;7.13;;
11671;SDS011;5892;43.412;24.612;2023-06-14T11:55:21;9.47;;;8.40;;
11671;SDS011;5892;43.412;24.612;2023-06-14T11:57:48;9.80;;;8.80;;
11671;SDS011;5892;43.412;24.612;2023-06-14T12:00:16;9.37;;;8.37;;
11671;SDS011;5892;43.412;24.612;2023-06-14T12:02:51;9.97;;;8.80;;
11671;SDS011;5892;43.412;24.612;2023-06-14T12:05:20;8.80;;;7.77;;
11671;SDS011;5892;43.412;24.612;2023-06-14T12:07:48;8.50;;;7.60;;
11671;SDS011;5892;43.412;24.612;2023-06-14T12:10:15;8.10;;;7.30;;
11671;SDS011;5892;43.412;24.612;2023-06-14T12:12:43;10.80;;;7.93;;
11671;SDS011;5892;43.412;24.612;2023-06-14T12:15:10;8.00;;;7.20;;
11671;SDS011;5892;43.412;24.612;2023-06-14T12:17:38;8.63;;;7.40;;
11671;SDS011;5892;43.412;24.612;2023-06-14T12:20:08;9.00;;;6.77;;
11671;SDS011;5892;43.412;24.612;2023-06-14T12:22:39;7.33;;;6.67;;
11671;SDS011;5892;43.412;24.612;2023-06-14T12:25:22;8.47;;;6.37;;
11671;SDS011;5892;43.412;24.612;2023-06-14T12:27:52;8.83;;;6.50;;
11671;SDS011;5892;43.412;24.612;2023-06-14T12:30:19;8.00;;;7.20;;
11671;SDS011;5892;43.412;24.612;2023-06-14T12:32:47;7.20;;;6.30;;
11671;SDS011;5892;43.412;24.612;2023-06-14T12:35:18;7.13;;;6.43;;
11671;SDS011;5892;43.412;24.612;2023-06-14T12:37:45;8.57;;;6.80;;
11671;SDS011;5892;43.412;24.612;2023-06-14T12:40:12;7.50;;;6.80;;
11671;SDS011;5892;43.412;24.612;2023-06-14T12:42:40;7.13;;;6.53;;
11671;SDS011;5892;43.412;24.612;2023-06-14T12:45:10;6.70;;;5.93;;
11671;SDS011;5892;43.412;24.612;2023-06-14T12:47:37;8.60;;;6.83;;
11671;SDS011;5892;43.412;24.612;2023-06-14T12:50:04;6.50;;;5.60;;
11671;SDS011;5892;43.412;24.612;2023-06-14T12:52:34;6.87;;;5.80;;
11671;SDS011;5892;43.412;24.612;2023-06-14T12:55:03;6.83;;;6.20;;
11671;SDS011;5892;43.412;24.612;2023-06-14T12:57:34;7.07;;;6.37;;
11671;SDS011;5892;43.412;24.612;2023-06-14T13:00:03;6.67;;;6.07;;
11671;SDS011;5892;43.412;24.612;2023-06-14T13:02:32;7.73;;;6.43;;
11671;SDS011;5892;43.412;24.612;2023-06-14T13:05:00;6.70;;;6.00;;
11671;SDS011;5892;43.412;24.612;2023-06-14T13:07:28;7.10;;;5.63;;
11671;SDS011;5892;43.412;24.612;2023-06-14T13:09:57;6.33;;;5.70;;
11671;SDS011;5892;43.412;24.612;2023-06-14T13:12:24;6.57;;;5.97;;
11671;SDS011;5892;43.412;24.612;2023-06-14T13:14:51;6.07;;;5.47;;
11671;SDS011;5892;43.412;24.612;2023-06-14T13:17:18;7.90;;;5.83;;
11671;SDS011;5892;43.412;24.612;2023-06-14T13:19:45;6.23;;;5.70;;
11671;SDS011;5892;43.412;24.612;2023-06-14T13:22:13;9.20;;;5.97;;
11671;SDS011;5892;43.412;24.612;2023-06-14T13:24:40;8.83;;;5.77;;
11671;SDS011;5892;43.412;24.612;2023-06-14T13:27:08;6.10;;;5.50;;
11671;SDS011;5892;43.412;24.612;2023-06-14T13:29:36;7.83;;;5.93;;
11671;SDS011;5892;43.412;24.612;2023-06-14T13:32:03;6.07;;;5.47;;
11671;SDS011;5892;43.412;24.612;2023-06-14T13:34:30;6.27;;;5.43;;
11671;SDS011;5892;43.412;24.612;2023-06-14T13:37:01;7.80;;;5.57;;
11671;SDS011;5892;43.412;24.612;2023-06-14T13:39:28;6.47;;;5.07;;
11671;SDS011;5892;43.412;24.612;2023-06-14T13:41:56;5.40;;;4.90;;
11671;SDS011;5892;43.412;24.612;2023-06-14T13:44:27;6.63;;;5.10;;
11671;SDS011;5892;43.412;24.612;2023-06-14T13:46:54;10.20;;;5.13;;
11671;SDS011;5892;43.412;24.612;2023-06-14T13:49:21;5.43;;;4.93;;
11671;SDS011;5892;43.412;24.612;2023-06-14T13:51:49;5.17;;;4.60;;
11671;SDS011;5892;43.412;24.612;2023-06-14T13:54:18;5.23;;;4.73;;
11671;SDS011;5892;43.412;24.612;2023-06-14T13:56:46;4.73;;;4.33;;
11671;SDS011;5892;43.412;24.612;2023-06-14T13:59:14;5.93;;;4.50;;
11671;SDS011;5892;43.412;24.612;2023-06-14T14:01:43;4.97;;;4.50;;
11671;SDS011;5892;43.412;24.612;2023-06-14T14:04:10;6.00;;;4.47;;
11671;SDS011;5892;43.412;24.612;2023-06-14T14:06:37;5.87;;;4.37;;
11671;SDS011;5892;43.412;24.612;2023-06-14T14:09:04;6.17;;;4.47;;
11671;SDS011;5892;43.412;24.612;2023-06-14T14:11:31;4.33;;;3.93;;
11671;SDS011;5892;43.412;24.612;2023-06-14T14:13:58;4.67;;;4.03;;
11671;SDS011;5892;43.412;24.612;2023-06-14T14:16:25;5.07;;;4.20;;
11671;SDS011;5892;43.412;24.612;2023-06-14T14:18:55;4.87;;;4.37;;
11671;SDS011;5892;43.412;24.612;2023-06-14T14:21:22;4.40;;;4.00;;
11671;SDS011;5892;43.412;24.612;2023-06-14T14:23:49;6.07;;;4.40;;
11671;SDS011;5892;43.412;24.612;2023-06-14T14:26:16;4.73;;;4.33;;
11671;SDS011;5892;43.412;24.612;2023-06-14T14:28:43;4.90;;;4.07;;
11671;SDS011;5892;43.412;24.612;2023-06-14T14:31:10;5.20;;;4.20;;
11671;SDS011;5892;43.412;24.612;2023-06-14T14:33:37;4.60;;;4.20;;
11671;SDS011;5892;43.412;24.612;2023-06-14T14:36:06;6.07;;;4.57;;
11671;SDS011;5892;43.412;24.612;2023-06-14T14:38:32;7.13;;;4.60;;
11671;SDS011;5892;43.412;24.612;2023-06-14T14:41:00;4.90;;;4.43;;
11671;SDS011;5892;43.412;24.612;2023-06-14T14:43:26;6.90;;;4.00;;
11671;SDS011;5892;43.412;24.612;2023-06-14T14:45:56;4.50;;;4.10;;
11671;SDS011;5892;43.412;24.612;2023-06-14T14:48:22;6.90;;;4.40;;
11671;SDS011;5892;43.412;24.612;2023-06-14T14:50:50;4.63;;;4.07;;
11671;SDS011;5892;43.412;24.612;2023-06-14T14:53:18;4.27;;;3.87;;